Time;durP1;ratioP1;P1;durP2;ratioP2;P2;SDS_P1;SDS_P2;PMS_P1;PMS_P2;Temp;Humidity;BMP_temperature;BMP_pressure;BME280_temperature;BME280_humidity;BME280_pressure;Samples;Min_cycle;Max_cycle;Signal;HPM_P1;HPM_P2
2022/06/06 00:02:15;;;;;;;5.37;2.57;;;;;;;24.30;67.07;98649.69;5034142;28;20614;-85
2022/06/06 00:04:41;;;;;;;4.17;2.23;;;;;;;24.28;67.36;98641.00;5034111;28;20170;-85
2022/06/06 00:07:06;;;;;;;7.20;2.03;;;;;;;24.20;67.66;98638.38;5049695;28;20178;-85
2022/06/06 00:09:33;;;;;;;6.03;3.10;;;;;;;24.30;66.90;98644.34;5034009;28;20697;-85
2022/06/06 00:12:01;;;;;;;7.50;2.43;;;;;;;24.36;66.21;98646.31;5049604;28;20705;-85
2022/06/06 00:14:27;;;;;;;4.20;1.83;;;;;;;24.23;65.72;98646.06;5048893;28;20190;-85
2022/06/06 00:16:53;;;;;;;3.27;1.77;;;;;;;24.14;66.37;98649.81;5033864;28;20167;-86
2022/06/06 00:19:18;;;;;;;10.20;2.40;;;;;;;24.16;66.25;98653.97;5033775;28;20543;-86
2022/06/06 00:21:44;;;;;;;6.33;2.40;;;;;;;24.14;66.06;98647.97;5034102;28;20213;-85
2022/06/06 00:24:11;;;;;;;10.30;2.73;;;;;;;24.09;66.36;98646.81;5034022;28;20171;-86
2022/06/06 00:26:36;;;;;;;5.37;2.30;;;;;;;23.99;66.81;98646.19;5033755;28;20163;-85
2022/06/06 00:29:04;;;;;;;12.10;3.00;;;;;;;23.97;67.02;98646.38;5033678;28;20265;-85
2022/06/06 00:37:01;;;;;;;3.23;1.63;;;;;;;23.82;67.17;98667.69;5033859;28;20169;-85
2022/06/06 00:39:27;;;;;;;4.33;1.90;;;;;;;23.71;67.77;98662.78;5033547;28;20620;-85
2022/06/06 00:41:56;;;;;;;6.73;2.37;;;;;;;23.61;68.09;98659.44;5033481;28;20171;-85
2022/06/06 00:44:31;;;;;;;4.80;1.60;;;;;;;23.64;67.34;98664.44;5033857;28;20194;-86
2022/06/06 00:47:04;;;;;;;3.20;1.93;;;;;;;23.67;67.20;98661.44;5033759;28;20165;-85
2022/06/06 00:49:47;;;;;;;4.93;2.13;;;;;;;23.62;67.59;98671.00;5032719;28;20538;-85
2022/06/06 00:52:37;;;;;;;3.90;1.90;;;;;;;23.60;67.40;98663.16;5033855;28;20249;-85
2022/06/06 00:55:11;;;;;;;3.97;2.00;;;;;;;23.58;68.31;98659.81;5033319;28;20178;-85
2022/06/06 00:57:44;;;;;;;8.03;2.00;;;;;;;23.54;68.55;98658.47;5033199;28;20209;-85
2022/06/06 01:00:13;;;;;;;5.57;1.97;;;;;;;23.49;68.52;98660.84;5033599;28;20221;-85
2022/06/06 01:02:40;;;;;;;3.20;1.50;;;;;;;23.50;68.55;98656.34;5033517;28;20197;-85
2022/06/06 01:05:06;;;;;;;10.30;1.90;;;;;;;23.52;68.45;98657.00;5033509;28;20177;-85
2022/06/06 01:07:33;;;;;;;3.73;1.77;;;;;;;23.56;68.23;98653.78;5033219;28;20170;-85
2022/06/06 01:09:59;;;;;;;3.33;1.67;;;;;;;23.62;67.80;98653.09;5033192;28;20317;-85
2022/06/06 01:12:25;;;;;;;6.83;2.57;;;;;;;23.65;67.21;98658.09;5033093;28;20293;-85
2022/06/06 01:14:57;;;;;;;3.90;1.83;;;;;;;23.59;66.43;98661.47;5033691;28;20171;-85
2022/06/06 01:17:35;;;;;;;2.60;1.60;;;;;;;23.55;66.57;98664.69;5033150;28;20201;-85
2022/06/06 01:20:15;;;;;;;4.70;1.73;;;;;;;23.47;66.05;98660.19;5048734;28;20235;-85
2022/06/06 01:23:02;;;;;;;2.03;1.10;;;;;;;23.38;66.84;98658.53;5033627;28;20170;-85
2022/06/06 01:25:42;;;;;;;3.80;1.20;;;;;;;23.36;67.33;98632.94;5034187;28;20269;-85
2022/06/06 01:28:47;;;;;;;3.73;1.30;;;;;;;23.29;66.66;98630.16;5037357;28;20158;-85
2022/06/06 01:31:18;;;;;;;11.43;2.07;;;;;;;23.25;66.44;98620.78;5035657;28;20220;-85
2022/06/06 01:33:54;;;;;;;3.00;1.57;;;;;;;23.22;67.37;98605.91;5049529;28;20236;-85
2022/06/06 01:36:21;;;;;;;2.83;1.30;;;;;;;23.29;67.17;98602.56;5037183;28;20675;-85
2022/06/06 01:38:47;;;;;;;2.27;1.07;;;;;;;23.36;68.15;98606.19;5052518;28;20179;-85
2022/06/06 01:41:22;;;;;;;2.97;1.47;;;;;;;23.40;68.11;98603.03;5037121;28;20177;-85
2022/06/06 01:44:06;;;;;;;3.60;1.43;;;;;;;23.44;67.64;98593.66;5053631;28;20165;-85
2022/06/06 01:46:35;;;;;;;3.13;1.40;;;;;;;23.49;66.89;98596.66;5035797;28;20202;-85
2022/06/06 01:49:04;;;;;;;2.97;1.00;;;;;;;23.47;66.50;98585.28;5052546;28;20175;-85
2022/06/06 01:51:31;;;;;;;4.10;1.83;;;;;;;23.44;66.75;98572.25;5052270;28;20178;-85
2022/06/06 01:53:57;;;;;;;4.03;1.40;;;;;;;23.33;67.27;98558.41;5036532;28;20552;-85
2022/06/06 01:56:31;;;;;;;3.77;1.40;;;;;;;23.29;67.32;98557.94;5036836;28;20675;-85
2022/06/06 01:58:57;;;;;;;3.53;1.50;;;;;;;23.28;67.54;98550.91;5052647;28;20193;-85
2022/06/06 02:01:23;;;;;;;3.87;1.60;;;;;;;23.27;67.90;98557.25;5052425;28;20185;-85
2022/06/06 02:03:49;;;;;;;2.50;1.07;;;;;;;23.30;67.27;98554.25;5052079;28;20174;-85
2022/06/06 02:06:15;;;;;;;4.80;1.43;;;;;;;23.34;67.25;98560.09;5051969;28;20205;-85
2022/06/06 02:08:42;;;;;;;2.87;1.80;;;;;;;23.34;67.01;98565.44;5052255;28;20540;-85
2022/06/06 02:11:09;;;;;;;4.90;1.70;;;;;;;23.19;67.61;98570.69;5036265;28;20171;-85
2022/06/06 02:13:34;;;;;;;3.10;1.37;;;;;;;23.15;68.04;98569.34;5051780;28;20204;-85
2022/06/06 02:16:00;;;;;;;3.80;1.90;;;;;;;23.07;67.92;98577.41;5051800;28;20174;-85
2022/06/06 02:18:26;;;;;;;12.03;2.80;;;;;;;22.99;68.67;98572.94;5036136;28;20253;-84
2022/06/06 02:20:53;;;;;;;4.30;1.93;;;;;;;23.04;68.58;98580.41;5035124;28;20204;-85
2022/06/06 02:23:19;;;;;;;3.47;1.63;;;;;;;23.04;68.30;98578.59;5036024;28;20166;-85
2022/06/06 02:25:44;;;;;;;4.23;2.00;;;;;;;23.00;68.34;98574.59;5051653;28;20174;-85
2022/06/06 02:28:10;;;;;;;4.70;2.23;;;;;;;22.93;69.23;98568.25;5051890;28;20659;-85
2022/06/06 02:30:37;;;;;;;4.83;2.43;;;;;;;22.90;69.52;98551.75;5034937;28;20591;-85
2022/06/06 02:33:03;;;;;;;3.03;1.53;;;;;;;22.92;69.06;98555.09;5052583;28;20205;-85
2022/06/06 02:35:36;;;;;;;4.33;1.50;;;;;;;22.94;68.43;98559.25;5051484;28;20174;-85
2022/06/06 02:38:01;;;;;;;6.57;2.00;;;;;;;22.89;68.79;98568.78;5051061;28;20604;-85
2022/06/06 02:40:28;;;;;;;21.13;9.70;;;;;;;22.89;68.55;98563.44;5036036;28;20174;-85
2022/06/06 02:42:54;;;;;;;14.00;6.00;;;;;;;22.91;68.48;98556.91;5051339;28;20171;-85
2022/06/06 02:45:19;;;;;;;9.63;3.13;;;;;;;22.93;68.51;98559.44;5051244;28;20545;-85
2022/06/06 02:47:48;;;;;;;9.53;3.10;;;;;;;22.90;68.96;98557.09;5051314;28;20170;-85
2022/06/06 02:50:16;;;;;;;6.80;1.90;;;;;;;22.87;68.80;98565.47;5035860;28;20575;-85
2022/06/06 02:52:43;;;;;;;7.77;2.27;;;;;;;22.87;68.69;98568.13;5051367;28;20194;-85
2022/06/06 02:55:09;;;;;;;16.33;5.33;;;;;;;22.86;68.45;98561.94;5051084;28;20616;-85
2022/06/06 02:57:50;;;;;;;17.57;6.00;;;;;;;22.89;68.00;98566.94;5051636;28;20268;-85
2022/06/06 03:00:19;;;;;;;11.23;4.47;;;;;;;22.88;68.53;98564.44;5035660;28;20162;-85
2022/06/06 03:02:45;;;;;;;5.50;2.67;;;;;;;22.79;69.51;98562.81;5035600;28;20167;-84
2022/06/06 03:05:10;;;;;;;4.33;1.80;;;;;;;22.70;69.97;98558.47;5034329;28;20177;-85
2022/06/06 03:07:42;;;;;;;2.77;1.53;;;;;;;22.69;69.92;98559.50;5035246;28;20533;-85
2022/06/06 03:10:32;;;;;;;6.43;1.70;;;;;;;22.65;69.90;98559.00;5034584;28;20186;-84
2022/06/06 03:13:32;;;;;;;4.90;1.83;;;;;;;22.55;70.91;98566.34;5035618;28;20194;-84
2022/06/06 03:22:22;;;;;;;2.50;1.27;;;;;;;22.75;68.29;98553.44;5033589;28;20264;-85
2022/06/06 03:25:05;;;;;;;6.43;1.93;;;;;;;22.88;67.96;98556.41;5035208;28;20158;-85
2022/06/06 03:27:56;;;;;;;2.07;1.17;;;;;;;22.84;69.10;98553.28;5051084;28;20528;-85
2022/06/06 03:30:30;;;;;;;3.43;1.60;;;;;;;22.78;69.44;98547.75;5034090;28;20174;-85
2022/06/06 03:33:33;;;;;;;7.00;1.57;;;;;;;22.82;69.99;98565.97;5034960;28;20187;-85
2022/06/06 03:36:21;;;;;;;2.80;1.50;;;;;;;22.83;70.39;98580.16;5035228;28;20178;-85
2022/06/06 03:38:56;;;;;;;5.33;1.83;;;;;;;22.93;70.37;98573.59;5034256;28;20191;-85
2022/06/06 03:41:40;;;;;;;2.27;1.20;;;;;;;23.10;69.76;98575.22;5056337;28;20688;-85
2022/06/06 03:44:06;;;;;;;3.93;1.87;;;;;;;23.23;69.83;98580.84;5053842;28;20272;-85
2022/06/06 03:47:00;;;;;;;3.17;1.80;;;;;;;23.27;69.53;98586.69;5053427;28;20698;-85
2022/06/06 03:49:26;;;;;;;2.90;1.40;;;;;;;23.36;70.14;98609.72;5053296;28;20259;-85
2022/06/06 03:52:13;;;;;;;4.87;1.97;;;;;;;23.44;68.74;98623.09;5053372;28;20205;-85
2022/06/06 03:55:06;;;;;;;3.33;1.90;;;;;;;23.39;68.69;98613.91;5054101;28;20531;-85
2022/06/06 03:57:35;;;;;;;5.00;1.47;;;;;;;23.40;69.41;98628.97;5069788;28;20639;-85
2022/06/06 04:00:06;;;;;;;6.07;2.30;;;;;;;23.53;69.54;98634.59;5053162;28;20177;-85
2022/06/06 04:02:36;;;;;;;3.67;1.80;;;;;;;23.59;68.75;98649.94;5053160;28;20173;-85
2022/06/06 04:05:08;;;;;;;5.57;2.20;;;;;;;23.56;68.08;98661.81;5053606;28;20170;-84
2022/06/06 04:07:34;;;;;;;8.27;2.70;;;;;;;23.53;67.17;98672.06;5054325;28;20162;-84
2022/06/06 04:10:01;;;;;;;5.47;2.37;;;;;;;23.44;66.14;98684.63;5053945;28;20183;-84
2022/06/06 04:12:50;;;;;;;4.73;2.50;;;;;;;23.44;66.62;98705.16;5052856;28;20170;-85
2022/06/06 04:15:42;;;;;;;9.53;2.53;;;;;;;23.19;67.92;98777.41;5052926;28;20272;-85
2022/06/06 04:18:36;;;;;;;3.73;1.50;;;;;;;22.64;70.14;98835.19;5053876;28;20170;-85
2022/06/06 04:21:30;;;;;;;4.37;2.10;;;;;;;22.06;73.54;98856.50;5069504;28;20650;-84
2022/06/06 04:24:08;;;;;;;6.00;2.27;;;;;;;21.68;79.11;98879.09;5053285;28;20627;-87
2022/06/06 04:26:43;;;;;;;9.33;2.47;;;;;;;21.55;82.09;98893.81;5053010;28;20627;-86
2022/06/06 04:29:17;;;;;;;8.40;2.83;;;;;;;21.52;84.30;98888.78;5053241;28;20177;-88
2022/06/06 04:31:51;;;;;;;9.23;2.73;;;;;;;21.27;86.39;98893.97;5053895;28;20202;-86
2022/06/06 04:34:25;;;;;;;3.27;1.93;;;;;;;21.28;87.26;98903.63;5053527;28;20181;-85
2022/06/06 04:37:04;;;;;;;3.10;1.60;;;;;;;21.31;87.97;98926.47;5052620;28;20223;-85
2022/06/06 04:39:46;;;;;;;3.70;1.73;;;;;;;21.03;89.36;98928.34;5053753;28;20237;-87
2022/06/06 04:42:26;;;;;;;7.83;2.27;;;;;;;20.86;92.07;98955.78;5054041;28;20165;-85
2022/06/06 04:45:02;;;;;;;3.53;1.77;;;;;;;20.78;93.94;98956.53;5053926;28;20188;-86
2022/06/06 04:47:35;;;;;;;3.47;1.63;;;;;;;20.67;96.07;98955.94;5053671;28;20168;-87
2022/06/06 04:50:09;;;;;;;3.80;2.50;;;;;;;20.93;94.52;98967.56;5053858;28;20169;-88
2022/06/06 04:52:37;;;;;;;3.13;1.87;;;;;;;21.03;93.41;98964.81;5053835;28;20186;-89
2022/06/06 04:55:08;;;;;;;5.83;2.13;;;;;;;21.19;93.17;98973.84;5053500;28;20725;-89
2022/06/06 04:57:36;;;;;;;4.73;2.20;;;;;;;21.19;93.70;98976.53;5053246;28;20280;-88
2022/06/06 05:00:05;;;;;;;6.53;2.77;;;;;;;21.24;93.85;98955.56;5052897;28;20623;-88
2022/06/06 05:02:33;;;;;;;3.70;2.43;;;;;;;21.18;94.29;98963.31;5053168;28;20257;-88
2022/06/06 05:04:58;;;;;;;6.80;2.60;;;;;;;21.21;95.29;98966.53;5053099;28;20180;-88
2022/06/06 05:07:35;;;;;;;3.90;2.13;;;;;;;21.24;94.74;98973.41;5053678;28;20169;-88
2022/06/06 05:10:13;;;;;;;3.60;2.10;;;;;;;21.28;94.20;98978.25;5053121;28;20252;-91
2022/06/06 05:13:10;;;;;;;3.33;2.10;;;;;;;21.24;95.90;98966.25;5052885;28;20209;-88
2022/06/06 05:16:16;;;;;;;4.27;2.70;;;;;;;21.26;95.47;98958.91;5052455;28;20185;-89
2022/06/06 05:18:47;;;;;;;8.53;2.40;;;;;;;21.39;94.52;98940.72;5053317;28;20150;-89
2022/06/06 05:21:22;;;;;;;7.43;2.70;;;;;;;21.60;93.08;98928.88;5053273;28;20265;-89
2022/06/06 05:24:15;;;;;;;5.27;2.23;;;;;;;21.72;91.41;98927.66;5053314;28;20610;-88
2022/06/06 05:27:03;;;;;;;6.03;2.30;;;;;;;21.82;91.40;98901.69;5053244;28;20248;-88
2022/06/06 05:29:56;;;;;;;4.33;2.30;;;;;;;22.01;89.99;98901.53;5053530;28;20162;-88
2022/06/06 05:32:35;;;;;;;2.73;1.57;;;;;;;22.10;89.39;98879.19;5053107;28;20166;-87
2022/06/06 05:35:24;;;;;;;6.13;1.80;;;;;;;22.24;88.95;98846.56;5053443;28;20320;-87
2022/06/06 05:37:58;;;;;;;4.33;1.70;;;;;;;22.30;87.97;98861.91;5053125;28;20169;-87
2022/06/06 05:40:38;;;;;;;4.20;1.63;;;;;;;22.34;87.36;98847.25;5053131;28;20238;-87
2022/06/06 05:43:26;;;;;;;2.07;0.97;;;;;;;22.41;86.98;98826.91;5053107;28;20216;-87
2022/06/06 05:46:14;;;;;;;6.97;1.83;;;;;;;22.42;87.38;98812.56;5053019;28;20177;-88
2022/06/06 05:48:48;;;;;;;3.20;1.53;;;;;;;22.65;86.86;98802.13;5053034;28;20158;-87
2022/06/06 05:51:29;;;;;;;4.03;1.80;;;;;;;22.80;86.22;98805.00;5052983;28;20158;-88
2022/06/06 05:54:04;;;;;;;6.17;1.77;;;;;;;22.87;86.14;98788.13;5051687;28;20197;-88
2022/06/06 05:56:48;;;;;;;6.37;2.40;;;;;;;22.97;85.80;98772.75;5052909;28;20193;-88
2022/06/06 05:59:13;;;;;;;5.93;2.17;;;;;;;23.00;85.97;98760.88;5052929;28;20229;-88
2022/06/06 06:01:54;;;;;;;5.40;1.77;;;;;;;22.99;86.75;98737.81;5051590;28;20270;-88
2022/06/06 06:04:31;;;;;;;3.13;1.57;;;;;;;22.99;87.95;98732.47;5053138;28;20154;-89
2022/06/06 06:06:59;;;;;;;3.90;2.20;;;;;;;23.22;86.38;98733.44;5052882;28;20215;-88
2022/06/06 06:09:31;;;;;;;5.67;2.23;;;;;;;23.34;86.08;98741.97;5052515;28;20181;-88
2022/06/06 06:12:03;;;;;;;5.27;1.80;;;;;;;23.29;86.24;98745.16;5053027;28;20154;-88
2022/06/06 06:14:37;;;;;;;4.93;1.77;;;;;;;23.29;86.90;98746.97;5056083;28;20194;-88
2022/06/06 06:17:03;;;;;;;4.03;2.27;;;;;;;23.38;86.74;98754.84;5056647;28;20161;-88
2022/06/06 06:19:39;;;;;;;5.30;2.40;;;;;;;23.46;86.47;98749.47;5056017;28;20632;-89
2022/06/06 06:22:07;;;;;;;5.57;2.23;;;;;;;23.62;86.23;98740.56;5056310;28;20166;-88
2022/06/06 06:24:37;;;;;;;10.07;2.57;;;;;;;23.77;85.59;98755.72;5071623;28;20174;-89
2022/06/06 06:27:05;;;;;;;7.83;2.63;;;;;;;23.86;85.65;98756.53;5056459;28;20181;-89
2022/06/06 06:29:30;;;;;;;4.80;2.10;;;;;;;23.78;86.20;98744.03;5056108;28;20180;-89
2022/06/06 06:32:11;;;;;;;5.27;2.77;;;;;;;23.74;87.68;98756.06;5056103;28;20177;-89
2022/06/06 06:34:56;;;;;;;6.73;2.77;;;;;;;23.78;86.37;98764.59;5054827;28;20685;-89
2022/06/06 06:37:22;;;;;;;7.50;2.90;;;;;;;23.87;87.63;98757.38;5054782;28;20507;-89
2022/06/06 06:40:17;;;;;;;7.83;2.63;;;;;;;24.16;87.15;98754.94;5055704;28;20181;-89
2022/06/06 06:42:42;;;;;;;6.17;2.63;;;;;;;24.41;87.64;98764.47;5071374;28;20170;-89
2022/06/06 06:45:28;;;;;;;6.87;2.93;;;;;;;24.69;88.66;98770.97;5055577;28;20173;-90
2022/06/06 06:48:19;;;;;;;4.67;3.17;;;;;;;25.19;85.26;98772.28;5055867;28;20154;-89
2022/06/06 06:51:03;;;;;;;13.77;2.90;;;;;;;25.78;81.21;98776.72;5055522;28;20196;-89
2022/06/06 06:53:43;;;;;;;4.20;2.20;;;;;;;26.26;75.27;98777.19;5055893;28;20204;-89
2022/06/06 06:56:22;;;;;;;3.70;1.93;;;;;;;26.87;74.80;98776.59;5055928;28;20173;-89
2022/06/06 06:58:54;;;;;;;7.17;2.03;;;;;;;27.16;71.59;98773.75;5055291;28;20752;-89
2022/06/06 07:10:58;;;;;;;1.90;0.93;;;;;;;28.33;61.71;98778.22;5055386;28;20239;-88
2022/06/06 07:13:56;;;;;;;5.30;1.45;;;;;;;28.66;66.29;98767.59;5055557;28;20189;-88
2022/06/06 07:16:33;;;;;;;3.83;1.77;;;;;;;28.85;63.21;98761.38;5055547;28;20243;-88
2022/06/06 07:19:11;;;;;;;3.15;1.45;;;;;;;28.98;59.50;98765.97;5055519;28;20180;-88
2022/06/06 07:21:38;;;;;;;4.63;1.65;;;;;;;28.98;58.51;98784.84;5055744;28;20168;-88
2022/06/06 07:24:10;;;;;;;4.57;1.45;;;;;;;28.91;60.69;98798.31;5054608;28;20177;-88
2022/06/06 07:26:41;;;;;;;4.07;1.50;;;;;;;28.88;61.13;98789.84;5054796;28;20174;-88
2022/06/06 07:29:10;;;;;;;6.80;1.55;;;;;;;28.91;63.30;98774.03;5055085;28;20770;-88
2022/06/06 07:31:41;;;;;;;6.88;1.50;;;;;;;28.94;62.15;98772.78;5054690;28;20686;-88
2022/06/06 07:34:33;;;;;;;3.17;1.48;;;;;;;29.12;63.83;98787.34;5053589;28;20558;-87
2022/06/06 07:37:13;;;;;;;3.72;1.25;;;;;;;29.08;61.62;98785.28;5055170;28;20599;-88
2022/06/06 07:39:50;;;;;;;4.18;1.40;;;;;;;29.10;62.00;98780.50;5054827;28;20280;-87
2022/06/06 07:42:39;;;;;;;4.80;1.33;;;;;;;29.21;62.51;98799.66;5055058;28;20177;-88
2022/06/06 07:45:09;;;;;;;5.57;1.50;;;;;;;29.35;59.42;98811.25;5054755;28;20162;-88
2022/06/06 07:47:53;;;;;;;4.07;1.30;;;;;;;29.40;59.11;98819.59;5054671;28;20180;-88
2022/06/06 07:50:26;;;;;;;2.65;0.90;;;;;;;29.44;56.03;98837.03;5070049;28;20177;-89
2022/06/06 07:53:00;;;;;;;1.90;1.00;;;;;;;29.32;57.58;98848.66;5054517;28;20190;-89
2022/06/06 07:55:33;;;;;;;3.38;1.05;;;;;;;29.20;57.77;98851.09;5053318;28;20242;-88
2022/06/06 07:58:17;;;;;;;7.00;1.60;;;;;;;29.12;58.69;98837.78;5054020;28;20185;-89
2022/06/06 08:00:49;;;;;;;4.20;1.65;;;;;;;29.00;59.78;98834.06;5053182;28;20536;-88
2022/06/06 08:03:23;;;;;;;5.82;1.25;;;;;;;28.90;60.27;98829.06;5054417;28;20154;-88
2022/06/06 08:05:57;;;;;;;4.60;1.45;;;;;;;28.88;58.74;98830.31;5054337;28;20158;-87
2022/06/06 08:08:38;;;;;;;4.07;1.27;;;;;;;28.78;57.67;98836.06;5054504;28;20168;-88
2022/06/06 08:11:23;;;;;;;2.75;1.10;;;;;;;28.48;58.30;98840.09;5054505;28;20244;-87
2022/06/06 08:14:09;;;;;;;3.67;1.63;;;;;;;28.56;58.12;98842.63;5054132;28;20190;-87
2022/06/06 08:16:47;;;;;;;3.17;1.95;;;;;;;28.40;59.81;98827.63;5054136;28;20162;-87
2022/06/06 08:19:28;;;;;;;2.55;1.23;;;;;;;28.16;61.05;98830.84;5054071;28;20158;-87
2022/06/06 08:21:54;;;;;;;6.28;1.40;;;;;;;28.05;62.40;98828.69;5054050;28;20158;-87
2022/06/06 08:24:26;;;;;;;3.67;1.77;;;;;;;27.92;62.13;98833.97;5052759;28;20177;-87
2022/06/06 08:26:54;;;;;;;3.30;1.35;;;;;;;27.93;61.88;98843.75;5052720;28;20581;-86
2022/06/06 08:29:20;;;;;;;6.50;1.98;;;;;;;27.83;63.16;98865.63;5054177;28;20169;-86
2022/06/06 08:31:46;;;;;;;5.25;1.85;;;;;;;27.54;64.27;98862.31;5053912;28;20565;-86
2022/06/06 08:34:14;;;;;;;2.67;1.60;;;;;;;27.41;63.93;98847.69;5053484;28;20576;-85
2022/06/06 08:37:04;;;;;;;6.35;1.70;;;;;;;27.44;63.52;98831.16;5053011;28;20174;-85
2022/06/06 08:39:44;;;;;;;4.45;1.67;;;;;;;27.43;65.29;98834.91;5053850;28;20204;-85
2022/06/06 08:42:47;;;;;;;2.75;1.27;;;;;;;27.54;64.74;98827.31;5052547;28;20188;-85
2022/06/06 08:45:32;;;;;;;6.90;1.75;;;;;;;27.56;65.12;98850.31;5069121;28;20626;-85
2022/06/06 08:48:02;;;;;;;4.43;1.85;;;;;;;27.46;65.19;98849.00;5052464;28;20265;-85
2022/06/06 08:50:49;;;;;;;4.97;1.70;;;;;;;27.43;65.32;98850.22;5053233;28;20603;-85
2022/06/06 08:53:52;;;;;;;5.50;1.40;;;;;;;27.34;65.97;98841.41;5052353;28;20263;-84
2022/06/06 08:56:42;;;;;;;3.88;1.45;;;;;;;27.53;66.96;98834.56;5053553;28;20184;-85
2022/06/06 08:59:12;;;;;;;8.65;2.55;;;;;;;27.71;64.63;98834.06;5069069;28;20170;-85
2022/06/06 09:01:55;;;;;;;5.60;1.83;;;;;;;27.91;63.50;98826.91;5052297;28;20212;-84
2022/06/06 09:05:03;;;;;;;4.82;1.98;;;;;;;27.94;62.72;98834.63;5053492;28;20162;-85
2022/06/06 09:08:07;;;;;;;4.00;2.00;;;;;;;27.83;62.93;98840.56;5052113;28;20189;-85
2022/06/06 09:10:45;;;;;;;7.47;2.20;;;;;;;27.81;64.37;98834.53;5068918;28;20167;-84
2022/06/06 09:13:18;;;;;;;2.45;1.30;;;;;;;27.92;63.87;98828.59;5052963;28;20228;-85
2022/06/06 09:16:08;;;;;;;6.18;2.05;;;;;;;27.81;62.71;98838.06;5052130;28;20177;-85
2022/06/06 09:18:52;;;;;;;4.95;2.03;;;;;;;27.73;63.38;98840.91;5052398;28;20181;-85
2022/06/06 09:21:42;;;;;;;5.15;2.05;;;;;;;27.51;64.58;98846.53;5053624;28;20150;-85
2022/06/06 09:24:27;;;;;;;4.47;2.25;;;;;;;27.62;66.06;98844.13;5068798;28;20230;-85
2022/06/06 09:27:24;;;;;;;4.90;2.25;;;;;;;27.79;65.26;98839.28;5052016;28;20651;-85
2022/06/06 09:30:22;;;;;;;4.55;1.92;;;;;;;28.16;66.17;98841.63;5053290;28;20193;-84
2022/06/06 09:33:04;;;;;;;3.97;1.80;;;;;;;28.48;64.73;98843.66;5052204;28;20288;-85
2022/06/06 09:35:49;;;;;;;5.50;1.60;;;;;;;28.80;62.98;98835.88;5052239;28;20179;-85
2022/06/06 09:38:32;;;;;;;4.18;2.20;;;;;;;28.77;61.44;98841.69;5052810;28;20253;-86
2022/06/06 09:41:10;;;;;;;6.43;1.60;;;;;;;28.75;60.39;98832.97;5052871;28;20177;-86
2022/06/06 09:43:56;;;;;;;5.68;2.03;;;;;;;29.22;61.18;98828.28;5068648;28;20169;-86
2022/06/06 09:46:54;;;;;;;2.80;1.55;;;;;;;29.42;62.66;98812.09;5052772;28;20173;-85
2022/06/06 09:49:51;;;;;;;6.13;2.03;;;;;;;29.81;60.17;98813.94;5056682;28;20201;-86
2022/06/06 09:52:23;;;;;;;5.60;1.70;;;;;;;29.93;59.02;98793.31;5072657;28;20608;-84
2022/06/06 10:01:02;;;;;;;3.10;1.27;;;;;;;29.92;54.59;98777.34;5056506;28;20170;-86
2022/06/06 10:03:57;;;;;;;5.13;1.58;;;;;;;30.02;53.23;98781.25;5073008;28;20193;-90
2022/06/06 10:06:47;;;;;;;3.20;1.48;;;;;;;30.06;53.76;98774.38;5037377;28;20198;-91
2022/06/06 10:09:31;;;;;;;4.20;1.50;;;;;;;30.08;53.37;98777.72;5056226;28;20237;-90
2022/06/06 10:12:14;;;;;;;3.10;1.27;;;;;;;30.04;53.51;98786.44;5072590;28;20181;-90
2022/06/06 10:14:59;;;;;;;4.50;2.08;;;;;;;30.03;54.45;98792.91;5055274;28;20268;-90
2022/06/06 10:18:02;;;;;;;5.28;1.73;;;;;;;30.15;53.68;98785.78;5056071;28;20170;-90
2022/06/06 10:20:47;;;;;;;2.55;1.25;;;;;;;30.16;55.59;98788.25;5050467;28;20195;-89
2022/06/06 10:23:24;;;;;;;6.65;1.83;;;;;;;30.31;53.05;98791.53;5071857;28;20166;-91
2022/06/06 10:26:17;;;;;;;4.80;1.73;;;;;;;30.60;53.44;98801.00;5055682;28;20208;-91
2022/06/06 10:29:20;;;;;;;2.47;1.33;;;;;;;30.72;52.65;98787.59;5055559;28;20185;-90
2022/06/06 10:32:13;;;;;;;6.15;1.17;;;;;;;30.84;50.97;98792.13;5056219;28;20173;-89
2022/06/06 10:35:02;;;;;;;2.65;1.40;;;;;;;30.86;50.56;98790.03;5071818;28;20201;-90
2022/06/06 10:37:48;;;;;;;4.50;1.92;;;;;;;31.01;50.05;98787.84;5054483;28;20189;-90
2022/06/06 10:40:28;;;;;;;3.97;1.83;;;;;;;31.01;50.37;98795.97;5054897;28;20191;-90
2022/06/06 10:43:19;;;;;;;2.60;1.50;;;;;;;30.96;49.50;98790.38;5054829;28;20261;-91
2022/06/06 10:45:48;;;;;;;3.35;1.38;;;;;;;30.88;50.02;98795.19;5055262;28;20623;-90
2022/06/06 10:48:21;;;;;;;4.10;1.75;;;;;;;30.80;49.95;98799.00;5055202;28;20265;-91
2022/06/06 10:54:14;;;;;;;6.90;2.13;;;;;;;30.79;51.67;98813.56;5055431;28;20212;-91
2022/06/06 10:57:14;;;;;;;7.80;1.92;;;;;;;30.85;53.53;98815.41;5055594;28;20500;-88
2022/06/06 11:00:03;;;;;;;3.60;1.70;;;;;;;30.87;53.87;98810.59;5052743;28;20186;-91
2022/06/06 11:03:06;;;;;;;9.50;2.40;;;;;;;30.72;53.22;98820.91;5052078;28;20659;-91
2022/06/06 11:06:02;;;;;;;6.65;2.00;;;;;;;30.40;54.21;98828.13;5056221;28;20154;-90
2022/06/06 11:09:15;;;;;;;7.72;2.08;;;;;;;29.99;57.62;98843.00;5054247;28;20170;-90
2022/06/06 11:12:08;;;;;;;5.10;2.38;;;;;;;29.76;58.59;98844.28;5055503;28;20228;-91
2022/06/06 11:14:38;;;;;;;2.97;1.73;;;;;;;29.63;60.25;98833.50;5055238;28;20194;-86
2022/06/06 11:17:31;;;;;;;3.72;1.70;;;;;;;29.64;60.92;98826.19;5051839;28;20181;-86
2022/06/06 11:20:25;;;;;;;4.25;2.40;;;;;;;29.80;60.26;98821.22;5054034;28;20260;-86
2022/06/06 11:22:53;;;;;;;3.28;1.90;;;;;;;29.78;60.34;98817.91;5054305;28;20174;-86
2022/06/06 11:25:21;;;;;;;5.15;2.25;;;;;;;29.83;60.34;98810.00;5055160;28;20615;-86
2022/06/06 11:28:05;;;;;;;4.72;2.50;;;;;;;29.89;58.99;98818.28;5054737;28;20687;-86
2022/06/06 11:30:54;;;;;;;4.82;2.08;;;;;;;29.80;59.38;98826.63;5053821;28;20186;-86
2022/06/06 11:33:38;;;;;;;6.35;2.10;;;;;;;29.69;59.16;98827.22;5054054;28;20289;-86
2022/06/06 11:36:52;;;;;;;5.40;2.53;;;;;;;29.70;59.50;98831.59;5070376;28;20172;-86
2022/06/06 11:39:36;;;;;;;8.02;2.72;;;;;;;29.59;59.57;98839.50;5053709;28;20180;-86
2022/06/06 11:42:36;;;;;;;5.28;2.35;;;;;;;29.48;60.19;98829.34;5070891;28;20201;-86
2022/06/06 11:45:26;;;;;;;5.35;2.65;;;;;;;29.49;59.89;98831.81;5053599;28;20170;-86
2022/06/06 11:48:00;;;;;;;4.53;2.20;;;;;;;29.46;61.52;98826.84;5070166;28;20168;-85
2022/06/06 11:50:48;;;;;;;4.78;2.53;;;;;;;29.52;61.17;98820.59;5054267;28;20173;-86
2022/06/06 11:53:44;;;;;;;5.25;3.10;;;;;;;29.55;59.77;98812.09;5053335;28;20276;-85
2022/06/06 11:56:32;;;;;;;4.70;2.95;;;;;;;29.62;59.96;98818.31;5053352;28;20236;-85
2022/06/06 11:59:34;;;;;;;4.93;3.40;;;;;;;29.51;60.23;98827.03;5050981;28;20201;-85
2022/06/06 12:02:32;;;;;;;8.18;3.70;;;;;;;29.51;58.72;98828.91;5059222;28;20296;-86
2022/06/06 12:05:23;;;;;;;10.80;4.55;;;;;;;29.56;61.20;98829.94;5050316;28;20181;-85
2022/06/06 12:08:10;;;;;;;5.93;3.80;;;;;;;29.31;58.54;98825.38;5035513;28;20206;-86
2022/06/06 12:11:06;;;;;;;6.28;3.35;;;;;;;29.23;58.54;98815.63;5032734;28;20254;-86
2022/06/06 12:13:59;;;;;;;6.40;3.60;;;;;;;29.44;57.90;98818.13;5032441;28;20209;-86
2022/06/06 12:17:00;;;;;;;5.70;3.67;;;;;;;29.51;57.43;98808.13;5063175;28;20534;-86
2022/06/06 12:20:03;;;;;;;4.88;3.33;;;;;;;29.54;56.07;98791.50;5071045;28;20187;-85
2022/06/06 12:22:44;;;;;;;5.43;3.42;;;;;;;29.67;57.06;98793.34;5072162;28;20172;-86
2022/06/06 12:25:47;;;;;;;5.30;3.20;;;;;;;29.47;55.90;98798.81;5072819;28;20511;-85
2022/06/06 12:28:31;;;;;;;4.40;2.97;;;;;;;29.36;57.28;98793.19;5072489;28;20618;-85
2022/06/06 12:31:29;;;;;;;11.38;3.38;;;;;;;29.51;56.25;98793.78;5072730;28;20177;-86
2022/06/06 12:34:31;;;;;;;4.78;2.95;;;;;;;29.27;55.80;98803.38;5072643;28;20254;-85
2022/06/06 12:37:16;;;;;;;7.78;2.60;;;;;;;29.27;55.15;98803.38;5052069;28;20219;-86
2022/06/06 12:39:53;;;;;;;5.30;3.20;;;;;;;29.33;56.34;98801.69;5073861;28;20171;-85
2022/06/06 12:42:24;;;;;;;3.88;2.50;;;;;;;29.20;56.47;98802.50;5073553;28;20203;-86
2022/06/06 12:45:21;;;;;;;4.95;2.35;;;;;;;29.47;56.22;98798.81;5072550;28;20161;-85
2022/06/06 12:48:05;;;;;;;4.18;1.60;;;;;;;29.57;54.54;98810.00;5072479;28;20177;-86
2022/06/06 12:50:36;;;;;;;2.28;1.42;;;;;;;29.45;54.48;98806.28;5072447;28;20161;-85
2022/06/06 12:53:17;;;;;;;2.63;1.35;;;;;;;29.37;52.04;98806.50;5070177;28;20224;-85
2022/06/06 12:56:24;;;;;;;2.47;1.40;;;;;;;29.05;54.76;98815.38;5047172;28;20182;-85
2022/06/06 12:59:17;;;;;;;2.05;1.13;;;;;;;28.99;55.31;98817.03;5031993;28;20225;-85
2022/06/06 13:01:53;;;;;;;1.98;1.17;;;;;;;29.24;53.19;98820.00;5033668;28;20612;-86